createdAt,value
2018-09-10T00:01:39.751Z,66.34
2018-09-10T00:04:08.975Z,67.32
2018-09-10T00:06:38.230Z,67.18
2018-09-10T00:09:09.055Z,67.89
2018-09-10T00:11:39.041Z,69.18
2018-09-10T00:14:08.139Z,68.86
2018-09-10T00:16:37.338Z,68.90
2018-09-10T00:19:06.274Z,68.85
2018-09-10T00:21:35.329Z,69.04
2018-09-10T00:24:04.396Z,69.43
2018-09-10T00:26:33.430Z,68.78
2018-09-10T00:29:02.483Z,68.67
2018-09-10T00:31:31.691Z,68.28
2018-09-10T00:34:00.967Z,68.08
2018-09-10T00:36:30.174Z,68.64
2018-09-10T00:38:59.312Z,68.13
2018-09-10T00:41:28.327Z,68.81
2018-09-10T00:43:57.371Z,69.02
2018-09-10T00:46:26.390Z,69.17
2018-09-10T00:48:55.418Z,69.00
2018-09-10T00:51:24.254Z,68.91
2018-09-10T00:53:53.163Z,69.26
2018-09-10T00:56:22.406Z,68.96
2018-09-10T00:58:51.559Z,69.18
2018-09-10T01:01:20.868Z,69.45
2018-09-10T01:03:50.690Z,70.07
2018-09-10T01:06:19.581Z,70.33
2018-09-10T01:08:48.372Z,70.00
2018-09-10T01:11:17.722Z,70.71
2018-09-10T01:13:46.767Z,70.35
2018-09-10T01:16:15.759Z,70.05
2018-09-10T01:18:45.231Z,70.62
2018-09-10T01:21:14.142Z,70.90
2018-09-10T01:23:43.022Z,71.05
2018-09-10T01:26:12.382Z,71.06
2018-09-10T01:28:41.343Z,71.33
2018-09-10T01:31:10.315Z,71.24
2018-09-10T01:33:44.613Z,70.99
2018-09-10T01:36:13.734Z,71.98
2018-09-10T01:38:42.628Z,71.87
2018-09-10T01:41:12.076Z,72.19
2018-09-10T01:43:41.333Z,72.66
2018-09-10T01:46:10.324Z,73.31
2018-09-10T01:48:40.110Z,73.55
2018-09-10T01:51:09.175Z,73.41
2018-09-10T01:53:38.150Z,73.03
2018-09-10T01:56:07.253Z,73.78
2018-09-10T01:58:36.134Z,73.92
2018-09-10T02:01:05.220Z,73.89
2018-09-10T02:03:34.447Z,74.06
2018-09-10T02:06:03.458Z,74.12
2018-09-10T02:08:32.422Z,74.26
2018-09-10T02:11:01.832Z,74.28
2018-09-10T02:13:31.023Z,74.50
2018-09-10T02:16:00.027Z,74.21
2018-09-10T02:18:28.954Z,74.39
2018-09-10T02:20:58.006Z,74.42
2018-09-10T02:23:28.185Z,74.45
2018-09-10T02:25:57.765Z,74.76
2018-09-10T02:28:26.736Z,74.79
2018-09-10T02:30:55.718Z,75.30
2018-09-10T02:33:24.938Z,75.29
2018-09-10T02:35:53.934Z,75.54
2018-09-10T02:38:23.151Z,75.87
2018-09-10T02:40:52.062Z,75.62
2018-09-10T02:43:21.113Z,76.01
2018-09-10T02:45:50.113Z,76.64
2018-09-10T02:48:19.538Z,75.90
2018-09-10T02:50:48.524Z,76.54
2018-09-10T02:53:17.607Z,76.43
2018-09-10T02:55:47.026Z,76.22
2018-09-10T02:58:16.120Z,76.42
2018-09-10T03:00:44.990Z,75.94
2018-09-10T03:03:14.027Z,76.07
2018-09-10T03:05:42.802Z,76.15
2018-09-10T03:08:11.990Z,76.56
2018-09-10T03:10:41.354Z,76.61
2018-09-10T03:13:10.383Z,76.75
2018-09-10T03:15:39.387Z,77.00
2018-09-10T03:18:08.940Z,76.90
2018-09-10T03:20:37.866Z,77.15
2018-09-10T03:23:07.078Z,76.62
2018-09-10T03:25:36.585Z,76.25
2018-09-10T03:28:05.506Z,77.07
2018-09-10T03:30:34.372Z,77.93
2018-09-10T03:33:03.540Z,77.92
2018-09-10T03:35:32.351Z,78.36
2018-09-10T03:38:01.655Z,79.28
2018-09-10T03:40:30.678Z,78.99
2018-09-10T03:42:59.760Z,78.98
2018-09-10T03:45:28.735Z,78.12
2018-09-10T03:47:58.063Z,78.85
2018-09-10T03:50:27.340Z,78.42
2018-09-10T03:52:56.222Z,78.20
2018-09-10T03:55:25.368Z,79.06
2018-09-10T03:57:54.336Z,79.07
2018-09-10T04:00:23.755Z,79.61
2018-09-10T04:02:53.166Z,80.14
2018-09-10T04:05:22.240Z,79.72
2018-09-10T04:07:51.349Z,78.74
2018-09-10T04:10:20.675Z,78.98
2018-09-10T04:12:49.752Z,79.26
2018-09-10T04:15:18.915Z,77.97
2018-09-10T04:17:48.062Z,77.16
2018-09-10T04:20:16.922Z,75.08
2018-09-10T04:22:46.223Z,72.47
2018-09-10T04:25:15.847Z,69.71
2018-09-10T04:27:44.933Z,68.04
2018-09-10T04:30:15.455Z,67.38
2018-09-10T04:32:44.852Z,67.40
2018-09-10T04:35:13.915Z,67.35
2018-09-10T04:37:42.965Z,64.63
2018-09-10T04:40:12.323Z,62.02
2018-09-10T04:42:41.552Z,60.87
2018-09-10T04:45:11.037Z,58.61
2018-09-10T04:47:40.399Z,57.45
2018-09-10T04:50:09.558Z,55.65
2018-09-10T04:52:38.558Z,55.64
2018-09-10T04:55:07.934Z,56.08
2018-09-10T04:57:36.936Z,55.33
2018-09-10T05:00:06.573Z,57.63
2018-09-10T05:02:36.136Z,58.11
2018-09-10T05:05:05.174Z,58.24
2018-09-10T05:07:34.275Z,58.32
2018-09-10T05:10:03.927Z,59.07
2018-09-10T05:12:32.981Z,59.01
2018-09-10T05:15:01.880Z,58.48
2018-09-10T05:17:31.291Z,56.32
2018-09-10T05:20:00.449Z,54.17
2018-09-10T05:22:29.471Z,50.82
2018-09-10T05:24:59.016Z,50.17
2018-09-10T05:27:27.858Z,48.81
2018-09-10T05:29:56.921Z,49.07
2018-09-10T05:32:26.380Z,49.31
2018-09-10T05:34:55.466Z,47.91
2018-09-10T05:37:24.458Z,46.61
2018-09-10T05:39:53.591Z,45.03
2018-09-10T05:42:22.657Z,45.23
2018-09-10T05:44:51.949Z,42.94
2018-09-10T05:47:21.258Z,40.98
2018-09-10T05:49:50.147Z,41.07
2018-09-10T05:52:19.126Z,37.85
2018-09-10T05:54:48.151Z,35.86
2018-09-10T05:57:17.216Z,34.40
2018-09-10T05:59:46.362Z,33.44
2018-09-10T06:02:15.767Z,33.26
2018-09-10T06:04:45.019Z,30.82
2018-09-10T06:07:14.025Z,31.05
2018-09-10T06:09:43.386Z,31.11
2018-09-10T06:12:12.595Z,31.97
2018-09-10T06:14:41.431Z,34.53
2018-09-10T06:17:10.339Z,36.90
2018-09-10T06:19:39.603Z,38.45
2018-09-10T06:22:08.611Z,36.80
2018-09-10T06:24:38.158Z,36.32
2018-09-10T06:27:07.232Z,34.27
2018-09-10T06:29:36.407Z,33.75
2018-09-10T06:32:05.963Z,33.40
2018-09-10T06:34:35.007Z,32.26
2018-09-10T06:37:03.944Z,30.97
2018-09-10T06:39:32.790Z,30.24
2018-09-10T06:42:02.077Z,28.80
2018-09-10T06:44:30.961Z,29.55
2018-09-10T06:47:00.544Z,28.54
2018-09-10T06:49:29.591Z,27.23
2018-09-10T06:51:58.665Z,29.03
2018-09-10T06:54:27.807Z,28.57
2018-09-10T06:56:56.767Z,28.22
2018-09-10T06:59:25.758Z,28.93
2018-09-10T07:01:55.179Z,28.36
2018-09-10T07:04:24.584Z,28.59
2018-09-10T07:06:53.687Z,29.67
2018-09-10T07:09:22.959Z,30.61
2018-09-10T07:11:51.979Z,30.97
2018-09-10T07:14:20.977Z,31.74
2018-09-10T07:16:50.163Z,33.04
2018-09-10T07:19:19.244Z,34.34
2018-09-10T07:21:48.475Z,36.26
2018-09-10T07:24:17.841Z,38.42
2018-09-10T07:26:46.869Z,39.96
2018-09-10T07:29:15.864Z,39.61
2018-09-10T07:31:45.691Z,37.62
2018-09-10T07:34:14.689Z,35.57
2018-09-10T07:36:43.867Z,35.98
2018-09-10T07:39:13.699Z,35.01
2018-09-10T07:41:42.800Z,34.50
2018-09-10T07:44:11.563Z,33.89
2018-09-10T07:46:41.412Z,32.91
2018-09-10T07:49:10.472Z,32.82
2018-09-10T07:51:39.375Z,32.04
2018-09-10T07:54:08.767Z,32.66
2018-09-10T07:56:37.884Z,30.86
2018-09-10T07:59:07.027Z,30.95
2018-09-10T08:01:36.151Z,30.95
2018-09-10T08:04:05.549Z,30.19
2018-09-10T08:06:34.693Z,29.75
2018-09-10T08:09:04.181Z,31.60
2018-09-10T08:11:33.170Z,31.43
2018-09-10T08:14:02.147Z,30.61
2018-09-10T08:16:31.614Z,31.51
2018-09-10T08:19:00.551Z,31.74
2018-09-10T08:21:29.545Z,30.58
2018-09-10T08:23:59.007Z,29.91
2018-09-10T08:26:28.315Z,29.38
2018-09-10T08:28:57.544Z,29.88
2018-09-10T08:31:26.701Z,28.88
2018-09-10T08:33:55.969Z,29.16
2018-09-10T08:36:25.115Z,30.10
2018-09-10T08:38:54.374Z,31.91
2018-09-10T08:41:23.535Z,34.10
2018-09-10T08:43:52.626Z,34.55
2018-09-10T08:46:22.175Z,33.63
2018-09-10T08:48:51.435Z,35.75
2018-09-10T08:51:20.424Z,33.98
2018-09-10T08:53:49.383Z,33.16
2018-09-10T08:56:18.699Z,34.46
2018-09-10T08:58:47.632Z,35.88
2018-09-10T09:01:16.959Z,37.38
2018-09-10T09:03:45.830Z,35.57
2018-09-10T09:06:14.961Z,36.10
2018-09-10T09:08:44.255Z,35.77
2018-09-10T09:11:13.542Z,35.48
2018-09-10T09:13:42.423Z,33.41
2018-09-10T09:16:11.429Z,30.90
2018-09-10T09:18:40.437Z,31.84
2018-09-10T09:21:09.923Z,31.84
2018-09-10T09:23:38.976Z,32.75
2018-09-10T09:26:08.053Z,32.72
2018-09-10T09:28:37.007Z,32.52
2018-09-10T09:31:06.526Z,33.50
2018-09-10T09:33:35.515Z,34.54
2018-09-10T09:36:10.125Z,35.23
2018-09-10T09:38:44.383Z,35.06
2018-09-10T09:41:18.628Z,34.01
2018-09-10T09:43:52.811Z,32.24
2018-09-10T09:46:21.922Z,32.46
2018-09-10T09:48:50.917Z,32.71
2018-09-10T09:51:19.873Z,31.99
2018-09-10T09:53:49.296Z,32.90
2018-09-10T09:56:18.559Z,33.57
2018-09-10T09:58:47.543Z,33.24
2018-09-10T10:01:24.141Z,32.49
2018-09-10T10:03:53.411Z,31.71
2018-09-10T10:06:23.162Z,32.49
2018-09-10T10:08:52.582Z,31.79
2018-09-10T10:11:21.845Z,31.56
2018-09-10T10:13:51.513Z,31.31
2018-09-10T10:16:20.920Z,30.49
2018-09-10T10:18:49.770Z,31.12
2018-09-10T10:21:18.971Z,31.02
2018-09-10T10:23:48.206Z,31.76
2018-09-10T10:26:17.339Z,31.05
2018-09-10T10:28:46.355Z,30.54
2018-09-10T10:31:15.085Z,31.68
2018-09-10T10:33:44.443Z,33.17
2018-09-10T10:36:13.655Z,33.30
2018-09-10T10:38:43.491Z,33.03
2018-09-10T10:41:12.582Z,33.82
2018-09-10T10:43:41.771Z,32.31
2018-09-10T10:46:11.383Z,33.68
2018-09-10T10:48:40.380Z,32.46
2018-09-10T10:51:09.447Z,32.75
2018-09-10T10:53:38.784Z,32.42
2018-09-10T10:56:07.868Z,32.26
2018-09-10T10:58:36.853Z,32.50
2018-09-10T11:01:06.170Z,32.92
2018-09-10T11:03:35.252Z,31.67
2018-09-10T11:06:04.352Z,31.45
2018-09-10T11:08:33.666Z,32.23
2018-09-10T11:11:02.725Z,31.68
2018-09-10T11:13:31.584Z,31.64
2018-09-10T11:16:00.799Z,31.80
2018-09-10T11:18:29.739Z,30.92
2018-09-10T11:20:58.712Z,31.86
2018-09-10T11:23:28.147Z,31.80
2018-09-10T11:25:57.440Z,31.90
2018-09-10T11:28:26.540Z,32.64
2018-09-10T11:30:55.863Z,32.52
2018-09-10T11:33:24.835Z,31.69
2018-09-10T11:35:53.929Z,31.31
2018-09-10T11:38:23.278Z,31.51
2018-09-10T11:40:52.499Z,31.74
2018-09-10T11:43:21.779Z,31.41
2018-09-10T11:45:51.286Z,30.78
2018-09-10T11:48:20.406Z,30.46
2018-09-10T11:50:49.399Z,30.02
2018-09-10T11:53:18.838Z,30.80
2018-09-10T11:55:48.003Z,30.95
2018-09-10T11:58:17.114Z,30.79
2018-09-10T12:00:46.454Z,31.23
2018-09-10T12:03:15.619Z,30.34
2018-09-10T12:05:44.629Z,29.48
2018-09-10T12:08:14.161Z,30.93
2018-09-10T12:10:43.358Z,30.54
2018-09-10T12:13:12.843Z,30.50
2018-09-10T12:15:42.219Z,30.24
2018-09-10T12:18:11.150Z,31.09
2018-09-10T12:20:40.110Z,31.41
2018-09-10T12:23:09.491Z,32.01
2018-09-10T12:25:38.530Z,31.67
2018-09-10T12:28:07.422Z,30.82
2018-09-10T12:30:36.375Z,31.55
2018-09-10T12:33:05.478Z,30.50
2018-09-10T12:35:34.579Z,30.71
2018-09-10T12:38:04.007Z,29.83
2018-09-10T12:40:32.899Z,29.63
2018-09-10T12:43:02.005Z,30.19
2018-09-10T12:45:31.223Z,29.99
2018-09-10T12:48:00.408Z,29.86
2018-09-10T12:50:29.367Z,28.93
2018-09-10T12:52:58.387Z,29.12
2018-09-10T12:55:27.461Z,29.28
2018-09-10T12:57:56.625Z,28.46
2018-09-10T13:00:26.066Z,29.65
2018-09-10T13:02:54.927Z,30.08
2018-09-10T13:05:24.043Z,30.32
2018-09-10T13:07:53.089Z,30.35
2018-09-10T13:10:22.047Z,29.53
2018-09-10T13:12:51.047Z,30.87
2018-09-10T13:15:20.375Z,30.53
2018-09-10T13:17:49.348Z,31.24
2018-09-10T13:20:18.255Z,30.68
2018-09-10T13:22:47.347Z,31.28
2018-09-10T13:25:16.615Z,31.88
2018-09-10T13:27:45.751Z,31.28
2018-09-10T13:30:14.963Z,32.69
2018-09-10T13:32:43.828Z,32.16
2018-09-10T13:35:13.031Z,31.33
2018-09-10T13:37:43.482Z,31.24
2018-09-10T13:40:12.527Z,31.00
2018-09-10T13:42:41.546Z,31.65
2018-09-10T13:45:10.871Z,31.85
2018-09-10T13:47:39.950Z,31.04
2018-09-10T13:50:09.142Z,31.77
2018-09-10T13:52:38.674Z,31.79
2018-09-10T13:55:07.902Z,32.00
2018-09-10T13:57:36.943Z,32.11
2018-09-10T14:00:06.303Z,32.28
2018-09-10T14:02:36.190Z,32.59
2018-09-10T14:05:05.265Z,32.08
2018-09-10T14:07:34.274Z,32.40
2018-09-10T14:10:03.448Z,31.76
2018-09-10T14:12:32.339Z,31.95
2018-09-10T14:15:02.029Z,33.00
2018-09-10T14:17:31.066Z,33.06
2018-09-10T14:20:00.047Z,32.80
2018-09-10T14:22:29.679Z,32.50
2018-09-10T14:24:58.763Z,32.56
2018-09-10T14:27:27.993Z,32.33
2018-09-10T14:29:57.070Z,32.00
2018-09-10T14:32:26.034Z,32.66
2018-09-10T14:34:54.939Z,33.73
2018-09-10T14:37:24.368Z,33.64
2018-09-10T14:39:53.547Z,33.68
2018-09-10T14:42:22.664Z,33.30
2018-09-10T14:44:52.194Z,34.14
2018-09-10T14:47:21.326Z,33.54
2018-09-10T14:49:50.551Z,33.35
2018-09-10T14:52:19.568Z,33.58
2018-09-10T14:54:48.644Z,34.12
2018-09-10T14:57:17.720Z,33.67
2018-09-10T14:59:47.380Z,34.30
2018-09-10T15:02:16.560Z,33.50
2018-09-10T15:04:45.539Z,33.91
2018-09-10T15:07:15.158Z,34.07
2018-09-10T15:09:44.254Z,34.55
2018-09-10T15:12:13.283Z,34.11
2018-09-10T15:14:42.446Z,34.34
2018-09-10T15:17:11.527Z,34.47
2018-09-10T15:19:40.639Z,35.31
2018-09-10T15:22:09.933Z,34.44
2018-09-10T15:24:38.889Z,35.27
2018-09-10T15:27:07.810Z,34.94
2018-09-10T15:29:37.258Z,35.47
2018-09-10T15:32:06.508Z,34.40
2018-09-10T15:34:35.679Z,35.29
2018-09-10T15:37:05.115Z,35.13
2018-09-10T15:39:33.898Z,35.38
2018-09-10T15:42:02.771Z,36.11
2018-09-10T15:44:32.252Z,36.06
2018-09-10T15:47:01.204Z,36.48
2018-09-10T15:49:30.910Z,36.02
2018-09-10T15:52:00.248Z,36.82
2018-09-10T15:54:29.476Z,37.37
2018-09-10T15:56:58.600Z,37.10
2018-09-10T15:59:28.279Z,37.69
2018-09-10T16:01:57.338Z,37.54
2018-09-10T16:04:26.194Z,37.84
2018-09-10T16:06:55.034Z,37.37
2018-09-10T16:09:24.105Z,38.39
2018-09-10T16:11:53.167Z,38.01
2018-09-10T16:14:22.571Z,38.95
2018-09-10T16:16:51.573Z,39.12
2018-09-10T16:19:20.496Z,38.61
2018-09-10T16:21:49.494Z,38.99
2018-09-10T16:24:18.563Z,38.88
2018-09-10T16:26:47.811Z,39.42
2018-09-10T16:29:17.083Z,39.23
2018-09-10T16:31:45.899Z,39.45
2018-09-10T16:34:14.979Z,39.70
2018-09-10T16:36:43.891Z,39.69
2018-09-10T16:39:13.294Z,40.31
2018-09-10T16:41:42.350Z,40.23
2018-09-10T16:44:11.702Z,40.34
2018-09-10T16:46:40.735Z,40.62
2018-09-10T16:49:09.939Z,40.79
2018-09-10T16:51:39.284Z,41.10
2018-09-10T16:54:08.473Z,41.09
2018-09-10T16:56:37.450Z,41.16
2018-09-10T16:59:06.881Z,41.84
2018-09-10T17:01:35.761Z,41.80
2018-09-10T17:04:04.756Z,42.14
2018-09-10T17:06:34.171Z,42.23
2018-09-10T17:09:03.207Z,42.41
2018-09-10T17:11:32.335Z,42.17
2018-09-10T17:14:01.479Z,42.77
2018-09-10T17:16:30.610Z,42.69
2018-09-10T17:18:59.507Z,42.87
2018-09-10T17:21:28.948Z,43.05
2018-09-10T17:23:57.984Z,43.89
2018-09-10T17:26:26.919Z,43.30
2018-09-10T17:28:56.251Z,44.10
2018-09-10T17:31:25.427Z,44.40
2018-09-10T17:33:54.728Z,44.44
2018-09-10T17:36:24.194Z,44.52
2018-09-10T17:38:53.111Z,44.29
2018-09-10T17:41:22.214Z,44.44
2018-09-10T17:43:51.114Z,44.24
2018-09-10T17:46:20.036Z,44.75
2018-09-10T17:48:49.079Z,44.79
2018-09-10T17:51:18.618Z,44.85
2018-09-10T17:53:47.575Z,45.57
2018-09-10T17:56:16.600Z,45.28
2018-09-10T17:58:46.208Z,45.95
2018-09-10T18:01:15.324Z,46.43
2018-09-10T18:03:44.307Z,46.15
2018-09-10T18:06:13.511Z,46.48
2018-09-10T18:08:42.236Z,47.15
2018-09-10T18:11:11.462Z,46.56
2018-09-10T18:13:41.509Z,46.93
2018-09-10T18:16:10.495Z,47.12
2018-09-10T18:18:39.507Z,47.39
2018-09-10T18:21:08.885Z,47.45
2018-09-10T18:23:37.911Z,47.16
2018-09-10T18:26:06.999Z,47.78
2018-09-10T18:28:36.286Z,47.79
2018-09-10T18:31:05.287Z,48.23
2018-09-10T18:33:34.421Z,48.47
2018-09-10T18:36:03.562Z,48.57
2018-09-10T18:38:32.455Z,49.35
2018-09-10T18:41:01.429Z,49.50
2018-09-10T18:43:31.003Z,49.39
2018-09-10T18:46:00.037Z,49.82
2018-09-10T18:48:29.037Z,49.71
2018-09-10T18:50:58.194Z,50.10
2018-09-10T18:53:27.239Z,50.84
2018-09-10T18:55:56.379Z,51.08
2018-09-10T18:58:25.582Z,51.26
2018-09-10T19:00:54.668Z,51.21
2018-09-10T19:03:23.659Z,51.31
2018-09-10T19:05:52.907Z,51.58
2018-09-10T19:08:21.999Z,51.49
2018-09-10T19:10:51.255Z,52.25
2018-09-10T19:13:20.667Z,52.19
2018-09-10T19:15:50.016Z,52.39
2018-09-10T19:18:19.508Z,53.40
2018-09-10T19:20:48.877Z,53.08
2018-09-10T19:23:17.951Z,53.52
2018-09-10T19:25:47.062Z,53.42
2018-09-10T19:28:16.678Z,53.81
2018-09-10T19:30:45.623Z,54.11
2018-09-10T19:33:14.760Z,53.97
2018-09-10T19:35:43.667Z,54.05
2018-09-10T19:38:12.914Z,54.19
2018-09-10T19:40:41.855Z,54.52
2018-09-10T19:43:11.782Z,54.71
2018-09-10T19:45:40.729Z,54.29
2018-09-10T19:48:09.746Z,54.85
2018-09-10T19:50:38.849Z,55.19
2018-09-10T19:53:08.587Z,55.07
2018-09-10T19:55:37.649Z,55.38
2018-09-10T19:58:07.014Z,55.55
2018-09-10T20:00:35.939Z,56.00
2018-09-10T20:03:04.994Z,56.43
2018-09-10T20:05:34.566Z,56.60
2018-09-10T20:08:03.486Z,56.58
2018-09-10T20:10:32.614Z,55.81
2018-09-10T20:13:02.061Z,56.49
2018-09-10T20:15:31.255Z,56.06
2018-09-10T20:18:00.247Z,56.37
2018-09-10T20:20:29.510Z,56.13
2018-09-10T20:22:58.522Z,56.31
2018-09-10T20:25:27.740Z,56.30
2018-09-10T20:27:56.783Z,56.81
2018-09-10T20:30:25.858Z,56.28
2018-09-10T20:32:54.619Z,55.99
2018-09-10T20:35:23.858Z,56.72
2018-09-10T20:37:52.887Z,56.37
2018-09-10T20:40:21.882Z,56.70
2018-09-10T20:42:51.271Z,56.76
2018-09-10T20:45:20.387Z,56.19
2018-09-10T20:47:49.398Z,56.16
2018-09-10T20:50:18.502Z,56.43
2018-09-10T20:52:47.497Z,56.40
2018-09-10T20:55:16.600Z,56.54
2018-09-10T20:57:45.688Z,56.63
2018-09-10T21:00:14.744Z,56.30
2018-09-10T21:02:43.783Z,56.49
2018-09-10T21:05:13.298Z,56.17
2018-09-10T21:07:42.249Z,56.52
2018-09-10T21:10:11.329Z,56.09
2018-09-10T21:12:40.786Z,56.19
2018-09-10T21:15:10.036Z,56.46
2018-09-10T21:17:38.995Z,56.45
2018-09-10T21:20:08.060Z,56.33
2018-09-10T21:22:36.812Z,56.72
2018-09-10T21:25:06.199Z,56.74
2018-09-10T21:27:35.445Z,56.85
2018-09-10T21:30:04.795Z,57.29
2018-09-10T21:32:33.814Z,57.55
2018-09-10T21:35:03.063Z,57.47
2018-09-10T21:37:32.030Z,57.29
2018-09-10T21:40:01.496Z,57.28
2018-09-10T21:42:30.836Z,57.39
2018-09-10T21:44:59.774Z,57.22
2018-09-10T21:47:28.707Z,57.89
2018-09-10T21:49:58.005Z,58.15
2018-09-10T21:52:26.879Z,58.58
2018-09-10T21:54:55.967Z,59.15
2018-09-10T21:57:25.310Z,59.69
2018-09-10T21:59:54.470Z,59.47
2018-09-10T22:02:23.578Z,59.44
2018-09-10T22:04:53.110Z,59.73
2018-09-10T22:07:22.406Z,59.76
2018-09-10T22:09:51.401Z,60.68
2018-09-10T22:12:21.929Z,61.00
2018-09-10T22:14:51.032Z,61.03
2018-09-10T22:17:20.226Z,61.07
2018-09-10T22:19:49.646Z,61.02
2018-09-10T22:22:18.706Z,61.67
2018-09-10T22:24:47.882Z,61.26
2018-09-10T22:27:17.130Z,61.50
2018-09-10T22:29:46.107Z,61.24
2018-09-10T22:32:14.926Z,61.15
2018-09-10T22:34:44.435Z,61.57
2018-09-10T22:37:13.423Z,61.93
2018-09-10T22:39:42.463Z,61.68
2018-09-10T22:42:11.409Z,62.14
2018-09-10T22:44:40.695Z,62.46
2018-09-10T22:47:09.666Z,63.08
2018-09-10T22:49:39.136Z,62.66
2018-09-10T22:52:08.271Z,62.49
2018-09-10T22:54:37.186Z,62.84
2018-09-10T22:57:06.439Z,63.51
2018-09-10T22:59:35.654Z,63.50
2018-09-10T23:02:04.726Z,63.87
2018-09-10T23:04:34.055Z,63.64
2018-09-10T23:07:03.254Z,64.00
2018-09-10T23:09:32.293Z,64.27
2018-09-10T23:12:01.482Z,64.26
2018-09-10T23:14:30.432Z,64.11
2018-09-10T23:16:59.542Z,64.14
2018-09-10T23:19:28.851Z,64.81
2018-09-10T23:21:57.767Z,64.91
2018-09-10T23:24:26.860Z,65.13
2018-09-10T23:26:56.179Z,64.50
2018-09-10T23:29:25.231Z,63.93
2018-09-10T23:31:54.222Z,64.29
2018-09-10T23:34:23.354Z,64.10
2018-09-10T23:36:52.123Z,63.99
2018-09-10T23:39:21.314Z,64.16
2018-09-10T23:41:50.672Z,64.25
2018-09-10T23:44:19.946Z,64.28
2018-09-10T23:46:48.594Z,64.04
2018-09-10T23:49:17.832Z,64.69
2018-09-10T23:51:46.929Z,64.57
2018-09-10T23:54:15.923Z,64.66
2018-09-10T23:56:44.962Z,64.47
2018-09-10T23:59:14.137Z,63.81
